Time;durP1;ratioP1;P1;durP2;ratioP2;P2;SDS_P1;SDS_P2;PMS_P1;PMS_P2;Temp;Humidity;BMP_temperature;BMP_pressure;BME280_temperature;BME280_humidity;BME280_pressure;Samples;Min_cycle;Max_cycle;Signal;HPM_P1;HPM_P2
2022/05/17 00:01:03;;;;;;;12.20;3.80;;;13.50;99.90;;;;;;5092387;28;20032;-65
2022/05/17 00:03:30;;;;;;;13.38;4.15;;;13.50;99.90;;;;;;5093240;28;20052;-64
2022/05/17 00:05:55;;;;;;;5.40;2.85;;;13.40;99.90;;;;;;5080920;28;20039;-65
2022/05/17 00:08:21;;;;;;;4.63;2.90;;;13.50;99.90;;;;;;5094110;28;20028;-64
2022/05/17 00:10:47;;;;;;;11.48;4.82;;;13.40;99.90;;;;;;5090794;28;20024;-64
2022/05/17 00:13:14;;;;;;;10.77;2.90;;;13.40;99.90;;;;;;5108744;28;20023;-64
2022/05/17 00:15:43;;;;;;;4.70;2.60;;;13.50;99.90;;;;;;5113146;28;20528;-64
2022/05/17 00:18:12;;;;;;;7.88;2.20;;;13.60;99.90;;;;;;5094135;28;20058;-65
2022/05/17 00:20:39;;;;;;;5.18;2.33;;;13.60;99.90;;;;;;5093496;28;20060;-65
2022/05/17 00:23:07;;;;;;;8.07;2.47;;;13.60;99.90;;;;;;5093582;28;20089;-65
2022/05/17 00:25:34;;;;;;;9.68;2.70;;;13.60;99.90;;;;;;5092814;28;20054;-64
2022/05/17 00:27:59;;;;;;;4.75;2.35;;;13.60;99.90;;;;;;5093720;28;20035;-65
2022/05/17 00:30:25;;;;;;;4.95;2.28;;;13.60;99.90;;;;;;5088024;28;20362;-65
2022/05/17 00:32:51;;;;;;;4.50;2.67;;;13.60;99.90;;;;;;5073514;28;20023;-65
2022/05/17 00:35:17;;;;;;;6.85;2.55;;;13.50;99.90;;;;;;5077956;28;20032;-65
2022/05/17 00:37:43;;;;;;;5.47;2.30;;;13.40;99.90;;;;;;5093451;28;20077;-65
2022/05/17 00:40:10;;;;;;;3.67;2.33;;;13.40;99.90;;;;;;5081238;28;20396;-64
2022/05/17 00:42:36;;;;;;;5.65;2.42;;;13.30;99.90;;;;;;5073222;28;20048;-65
2022/05/17 00:45:03;;;;;;;5.75;1.95;;;13.20;99.90;;;;;;5072880;28;20064;-64
2022/05/17 00:47:32;;;;;;;5.73;2.40;;;13.10;99.90;;;;;;5072936;28;20461;-65
2022/05/17 00:50:04;;;;;;;22.50;5.85;;;13.10;99.90;;;;;;5076716;28;20028;-64
2022/05/17 00:52:37;;;;;;;26.38;8.30;;;13.10;99.90;;;;;;5093153;28;20013;-65
2022/05/17 00:55:27;;;;;;;9.75;4.43;;;13.10;99.90;;;;;;5092880;28;20032;-65
2022/05/17 00:58:02;;;;;;;25.27;6.57;;;13.10;99.90;;;;;;5092281;28;20031;-64
2022/05/17 01:00:32;;;;;;;26.25;7.75;;;13.10;99.90;;;;;;5093144;28;20020;-65
2022/05/17 01:03:01;;;;;;;10.45;3.33;;;13.00;99.90;;;;;;5092505;28;20020;-65
2022/05/17 01:05:30;;;;;;;11.73;4.03;;;13.00;99.90;;;;;;5103103;28;20039;-64
2022/05/17 01:07:58;;;;;;;6.95;3.05;;;13.00;99.90;;;;;;5094266;28;20020;-65
2022/05/17 01:10:29;;;;;;;11.52;4.22;;;12.90;99.90;;;;;;5094707;28;20024;-65
2022/05/17 01:15:42;;;;;;;9.32;4.28;;;12.70;99.90;;;;;;5092983;28;20142;-65
2022/05/17 01:18:07;;;;;;;9.65;4.53;;;12.60;99.90;;;;;;5092824;28;20128;-65
2022/05/17 01:20:33;;;;;;;12.50;5.47;;;12.60;99.90;;;;;;5092070;28;20035;-65
2022/05/17 01:22:59;;;;;;;7.85;3.90;;;12.60;99.90;;;;;;5092071;28;20028;-65
2022/05/17 01:25:26;;;;;;;8.63;3.40;;;12.60;99.90;;;;;;5090298;28;20483;-65
2022/05/17 01:28:00;;;;;;;9.07;3.80;;;12.50;99.90;;;;;;5092798;28;20434;-64
2022/05/17 01:30:27;;;;;;;9.45;4.28;;;12.60;99.90;;;;;;5092444;28;20043;-66
2022/05/17 01:32:53;;;;;;;8.15;4.18;;;12.50;99.90;;;;;;5078910;28;20033;-66
2022/05/17 01:35:19;;;;;;;8.38;3.20;;;12.50;99.90;;;;;;5072021;28;20036;-66
2022/05/17 01:37:49;;;;;;;5.70;2.97;;;12.40;99.90;;;;;;5076256;28;20055;-66
2022/05/17 01:40:15;;;;;;;10.02;3.90;;;12.40;99.90;;;;;;5091950;28;20063;-65
2022/05/17 01:42:40;;;;;;;16.48;5.80;;;12.50;99.90;;;;;;5091178;28;20063;-66
2022/05/17 01:45:07;;;;;;;31.92;12.63;;;12.50;99.90;;;;;;5086189;28;20079;-65
2022/05/17 01:47:32;;;;;;;27.60;8.75;;;12.40;99.90;;;;;;5088501;28;20032;-65
2022/05/17 01:49:58;;;;;;;11.27;4.55;;;12.40;99.90;;;;;;5091220;28;20305;-65
2022/05/17 01:52:24;;;;;;;7.00;3.80;;;12.40;99.90;;;;;;5081089;28;20028;-65
2022/05/17 01:54:49;;;;;;;14.07;5.38;;;12.40;99.90;;;;;;5071759;28;20027;-65
2022/05/17 01:57:15;;;;;;;9.10;4.45;;;12.40;99.90;;;;;;5104528;28;20059;-65
2022/05/17 01:59:41;;;;;;;10.77;3.95;;;12.40;99.90;;;;;;5073186;28;20109;-65
2022/05/17 02:02:07;;;;;;;6.20;3.75;;;12.40;99.90;;;;;;5091533;28;20414;-65
2022/05/17 02:04:33;;;;;;;7.18;3.40;;;12.40;99.90;;;;;;5091221;28;20488;-65
2022/05/17 02:06:59;;;;;;;10.32;4.47;;;12.40;99.90;;;;;;5091231;28;20046;-67
2022/05/17 02:09:24;;;;;;;9.32;3.50;;;12.40;99.90;;;;;;5090597;28;20024;-67
2022/05/17 02:11:50;;;;;;;11.45;3.83;;;12.40;99.90;;;;;;5091285;28;20521;-66
2022/05/17 02:14:17;;;;;;;7.70;3.90;;;12.30;99.90;;;;;;5110916;28;20487;-66
2022/05/17 02:16:43;;;;;;;9.65;4.68;;;12.30;99.90;;;;;;5106244;28;20057;-66
2022/05/17 02:19:09;;;;;;;9.77;4.57;;;12.20;99.90;;;;;;5091420;28;20024;-66
2022/05/17 02:21:36;;;;;;;10.68;5.47;;;12.20;99.90;;;;;;5075361;28;20545;-67
2022/05/17 02:24:03;;;;;;;18.15;8.07;;;12.10;99.90;;;;;;5071168;28;20098;-65
2022/05/17 02:26:29;;;;;;;27.47;11.43;;;12.10;99.90;;;;;;5090075;28;20442;-67
2022/05/17 02:28:55;;;;;;;34.03;13.00;;;12.10;99.90;;;;;;5091496;28;20261;-67
2022/05/17 02:31:21;;;;;;;24.05;8.63;;;12.00;99.90;;;;;;5108572;28;20106;-66
2022/05/17 02:33:47;;;;;;;17.42;5.93;;;11.90;99.90;;;;;;5114431;28;20472;-66
2022/05/17 02:36:13;;;;;;;14.50;6.13;;;11.90;99.90;;;;;;5106332;27;20093;-65
2022/05/17 02:38:40;;;;;;;17.83;6.40;;;12.00;99.90;;;;;;5083087;28;20036;-66
2022/05/17 02:41:06;;;;;;;18.08;7.20;;;12.10;99.90;;;;;;5083521;28;20040;-67
2022/05/17 02:43:32;;;;;;;18.88;7.03;;;12.10;99.90;;;;;;5095788;28;20047;-66
2022/05/17 02:45:58;;;;;;;14.80;6.78;;;12.10;99.90;;;;;;5095505;28;20073;-66
2022/05/17 02:48:24;;;;;;;21.15;6.72;;;12.10;99.90;;;;;;5094236;28;20024;-67
2022/05/17 02:50:49;;;;;;;18.35;7.40;;;12.00;99.90;;;;;;5094686;28;20085;-67
2022/05/17 02:53:15;;;;;;;17.85;7.38;;;12.00;99.90;;;;;;5095634;28;20472;-66
2022/05/17 02:55:40;;;;;;;16.50;6.68;;;12.10;99.90;;;;;;5089591;28;20362;-67
2022/05/17 02:58:06;;;;;;;17.40;7.20;;;12.10;99.90;;;;;;5075170;28;20512;-66
2022/05/17 03:00:33;;;;;;;15.90;7.55;;;12.00;99.90;;;;;;5075057;28;20400;-67
2022/05/17 03:02:58;;;;;;;14.20;6.45;;;12.00;99.90;;;;;;5075082;28;20035;-66
2022/05/17 03:05:25;;;;;;;14.18;7.45;;;12.00;99.90;;;;;;5078323;28;20575;-66
2022/05/17 03:07:50;;;;;;;22.45;8.35;;;12.00;99.90;;;;;;5094187;28;20028;-66
2022/05/17 03:10:17;;;;;;;21.80;9.13;;;12.10;99.90;;;;;;5095264;28;20047;-66
2022/05/17 03:12:44;;;;;;;24.65;9.80;;;12.10;99.90;;;;;;5095200;28;20484;-67
2022/05/17 03:15:13;;;;;;;26.75;10.07;;;12.20;99.90;;;;;;5094666;28;20030;-67
2022/05/17 03:17:39;;;;;;;32.35;10.70;;;12.20;99.90;;;;;;5075679;28;20100;-66
2022/05/17 03:20:06;;;;;;;30.98;10.70;;;12.30;99.90;;;;;;5075415;28;20151;-67
2022/05/17 03:22:31;;;;;;;39.33;11.70;;;12.40;99.90;;;;;;5094932;28;20032;-67
2022/05/17 03:24:57;;;;;;;32.88;11.32;;;12.40;99.90;;;;;;5094812;28;20038;-67
2022/05/17 03:27:23;;;;;;;35.75;12.80;;;12.40;99.90;;;;;;5094557;28;20111;-66
2022/05/17 03:29:49;;;;;;;39.08;11.70;;;12.40;99.90;;;;;;5094301;28;20335;-67
2022/05/17 03:32:15;;;;;;;32.38;10.73;;;12.40;99.90;;;;;;5094974;28;20488;-66
2022/05/17 03:34:41;;;;;;;23.42;8.98;;;12.40;99.90;;;;;;5094690;28;20077;-67
2022/05/17 03:37:07;;;;;;;27.80;9.23;;;12.50;99.90;;;;;;5094592;28;20032;-67
2022/05/17 03:39:33;;;;;;;22.15;8.60;;;12.40;99.90;;;;;;5094720;28;20028;-66
2022/05/17 03:41:58;;;;;;;17.02;7.88;;;12.30;99.90;;;;;;5082083;28;20468;-66
2022/05/17 03:44:24;;;;;;;23.42;9.50;;;12.20;99.90;;;;;;5073861;28;20063;-66
2022/05/17 03:46:50;;;;;;;26.27;9.05;;;12.20;99.90;;;;;;5092980;28;20073;-66
2022/05/17 03:49:15;;;;;;;23.20;8.32;;;12.10;99.90;;;;;;5093508;28;20384;-67
2022/05/17 03:51:41;;;;;;;18.02;7.47;;;12.10;99.90;;;;;;5092916;28;20020;-67
2022/05/17 03:54:07;;;;;;;21.83;8.65;;;12.10;99.90;;;;;;5092660;28;20376;-67
2022/05/17 03:56:33;;;;;;;29.27;9.88;;;12.10;99.90;;;;;;5093199;28;20035;-67
2022/05/17 03:58:59;;;;;;;30.90;9.82;;;12.00;99.90;;;;;;5093179;28;20036;-66
2022/05/17 04:01:24;;;;;;;23.75;8.90;;;12.00;99.90;;;;;;5089457;28;20089;-66
2022/05/17 04:03:50;;;;;;;24.65;9.82;;;11.90;99.90;;;;;;5091776;28;20039;-67
2022/05/17 04:06:16;;;;;;;22.27;9.80;;;11.90;99.90;;;;;;5085888;28;20040;-66
2022/05/17 04:08:41;;;;;;;24.77;8.80;;;11.80;99.90;;;;;;5089832;28;20027;-66
2022/05/17 04:11:07;;;;;;;25.70;9.02;;;11.80;99.90;;;;;;5093319;28;20484;-66
2022/05/17 04:13:34;;;;;;;22.15;8.88;;;11.70;99.90;;;;;;5089537;28;20021;-67
2022/05/17 04:16:01;;;;;;;25.35;8.95;;;11.70;99.90;;;;;;5090153;28;20156;-66
2022/05/17 04:18:28;;;;;;;19.10;8.10;;;11.70;99.90;;;;;;5092541;28;20028;-66
2022/05/17 04:21:01;;;;;;;23.83;9.05;;;11.70;99.90;;;;;;5092881;28;20040;-66
2022/05/17 04:23:27;;;;;;;22.25;8.35;;;11.80;99.90;;;;;;5092516;28;20038;-66
2022/05/17 04:25:53;;;;;;;27.25;10.27;;;11.80;99.90;;;;;;5092209;28;20044;-66
2022/05/17 04:28:19;;;;;;;24.77;9.07;;;11.90;99.90;;;;;;5084446;28;20135;-65
2022/05/17 04:30:45;;;;;;;23.88;9.32;;;11.90;99.90;;;;;;5089757;28;20031;-65
2022/05/17 04:33:11;;;;;;;21.13;8.70;;;11.90;99.90;;;;;;5092938;28;20489;-65
2022/05/17 04:35:38;;;;;;;19.52;8.82;;;11.90;99.90;;;;;;5092641;28;20395;-65
2022/05/17 04:38:04;;;;;;;21.13;8.93;;;11.90;99.90;;;;;;5092226;28;20035;-65
2022/05/17 04:40:30;;;;;;;17.70;7.38;;;11.90;99.90;;;;;;5092479;28;20530;-65
2022/05/17 04:42:57;;;;;;;18.48;7.50;;;11.90;99.90;;;;;;5092532;28;20484;-65
2022/05/17 04:45:24;;;;;;;15.65;6.43;;;11.90;99.90;;;;;;5092489;28;20054;-65
2022/05/17 04:47:50;;;;;;;11.98;6.10;;;11.90;99.90;;;;;;5092061;28;20024;-65
2022/05/17 04:50:17;;;;;;;38.17;5.57;;;11.90;99.90;;;;;;5092065;28;20099;-64
2022/05/17 04:52:43;;;;;;;16.08;7.20;;;11.90;99.90;;;;;;5090630;28;20484;-65
2022/05/17 04:55:11;;;;;;;15.40;7.28;;;11.90;99.90;;;;;;5092120;28;20048;-65
2022/05/17 04:57:38;;;;;;;14.55;7.47;;;12.00;99.90;;;;;;5091069;28;20520;-66
2022/05/17 05:00:08;;;;;;;21.65;8.32;;;12.00;99.90;;;;;;5092681;28;20043;-65
2022/05/17 05:02:33;;;;;;;22.88;9.10;;;12.00;99.90;;;;;;5113201;28;20070;-65
2022/05/17 05:04:59;;;;;;;22.60;9.38;;;12.10;99.90;;;;;;5096664;28;20107;-65
2022/05/17 05:07:25;;;;;;;30.25;10.18;;;12.20;99.90;;;;;;5087337;28;20032;-66
2022/05/17 05:09:50;;;;;;;21.80;8.00;;;12.10;99.90;;;;;;5091737;28;20016;-65
2022/05/17 05:12:16;;;;;;;29.77;9.70;;;12.10;99.90;;;;;;5091180;28;20587;-65
2022/05/17 05:14:42;;;;;;;20.95;7.53;;;12.10;99.90;;;;;;5087160;28;20024;-65
2022/05/17 05:17:09;;;;;;;28.42;8.52;;;12.10;99.90;;;;;;5091791;28;20476;-65
2022/05/17 05:19:35;;;;;;;21.13;7.72;;;12.10;99.90;;;;;;5091690;28;20385;-65
2022/05/17 05:22:01;;;;;;;20.65;8.77;;;12.00;99.90;;;;;;5088316;28;20540;-66
2022/05/17 05:24:26;;;;;;;18.52;7.68;;;12.00;99.90;;;;;;5091131;28;20036;-65
2022/05/17 05:26:52;;;;;;;20.75;7.07;;;12.10;99.90;;;;;;5097952;28;20031;-65
2022/05/17 05:29:18;;;;;;;15.70;7.65;;;12.10;99.90;;;;;;5093992;28;20441;-65
2022/05/17 05:31:43;;;;;;;13.88;6.10;;;12.10;99.90;;;;;;5107880;28;20028;-65
2022/05/17 05:34:09;;;;;;;13.88;6.25;;;12.20;99.90;;;;;;5110038;28;20031;-65
2022/05/17 05:36:35;;;;;;;13.68;6.47;;;12.20;99.90;;;;;;5092305;28;20081;-66
2022/05/17 05:39:00;;;;;;;12.32;6.13;;;12.30;99.90;;;;;;5092044;28;20059;-65
2022/05/17 05:41:26;;;;;;;11.77;6.07;;;12.40;99.90;;;;;;5092345;28;20036;-65
2022/05/17 05:43:52;;;;;;;13.82;6.78;;;12.50;99.90;;;;;;5086244;28;20023;-66
2022/05/17 05:46:17;;;;;;;20.70;8.35;;;12.50;99.90;;;;;;5077510;28;20053;-65
2022/05/17 05:48:43;;;;;;;13.65;6.70;;;12.60;99.90;;;;;;5084454;28;20020;-65
2022/05/17 05:51:09;;;;;;;19.02;8.18;;;12.70;99.90;;;;;;5080233;28;20016;-65
2022/05/17 05:53:35;;;;;;;16.40;7.82;;;12.80;99.90;;;;;;5080278;28;20020;-65
2022/05/17 05:56:05;;;;;;;14.60;8.30;;;12.90;99.90;;;;;;5091616;28;20032;-65
2022/05/17 05:58:33;;;;;;;13.10;7.90;;;13.00;99.90;;;;;;5087689;28;20584;-65
2022/05/17 06:00:59;;;;;;;20.17;9.63;;;13.00;99.90;;;;;;5089880;28;20033;-65
2022/05/17 06:03:26;;;;;;;18.63;9.30;;;13.10;99.90;;;;;;5085895;28;20465;-65
2022/05/17 06:05:52;;;;;;;18.23;9.68;;;13.10;99.90;;;;;;5071487;28;20032;-66
2022/05/17 06:08:18;;;;;;;18.98;8.73;;;13.10;99.90;;;;;;5071721;28;20032;-65
2022/05/17 06:10:44;;;;;;;19.20;8.73;;;13.20;99.90;;;;;;5071739;28;20020;-65
2022/05/17 06:13:13;;;;;;;17.95;8.40;;;13.20;99.90;;;;;;5088950;28;20106;-65
2022/05/17 06:15:40;;;;;;;18.33;8.90;;;13.20;99.90;;;;;;5106218;28;20074;-65
2022/05/17 06:18:06;;;;;;;17.13;8.32;;;13.30;99.90;;;;;;5092572;28;20058;-66
2022/05/17 06:20:33;;;;;;;16.15;8.57;;;13.30;99.90;;;;;;5072316;28;20473;-65
2022/05/17 06:22:58;;;;;;;18.15;9.50;;;13.40;99.90;;;;;;5091873;28;20032;-65
2022/05/17 06:25:24;;;;;;;15.90;8.63;;;13.40;99.90;;;;;;5091435;28;20040;-65
2022/05/17 06:27:50;;;;;;;9.95;6.72;;;13.50;99.90;;;;;;5091223;28;20095;-65
2022/05/17 06:30:16;;;;;;;16.52;7.30;;;13.60;99.90;;;;;;5092207;28;20020;-65
2022/05/17 06:32:42;;;;;;;11.68;6.45;;;13.60;99.90;;;;;;5091698;28;20027;-65
2022/05/17 06:35:09;;;;;;;13.15;7.43;;;13.60;99.90;;;;;;5091426;28;20493;-68
2022/05/17 06:37:35;;;;;;;15.60;8.87;;;13.60;99.90;;;;;;5089490;28;20035;-67
2022/05/17 06:40:01;;;;;;;13.15;7.50;;;13.70;99.90;;;;;;5070180;28;20644;-66
2022/05/17 06:42:29;;;;;;;15.32;7.72;;;13.80;99.90;;;;;;5071138;28;20118;-66
2022/05/17 06:44:55;;;;;;;17.88;8.95;;;13.90;99.90;;;;;;5082826;28;20035;-67
2022/05/17 06:47:21;;;;;;;16.05;8.23;;;14.00;99.90;;;;;;5089489;28;20024;-66
2022/05/17 06:49:47;;;;;;;19.38;8.95;;;14.20;99.90;;;;;;5077729;28;20029;-67
2022/05/17 06:52:13;;;;;;;17.63;8.68;;;14.40;99.90;;;;;;5091479;28;20031;-67
2022/05/17 06:54:40;;;;;;;15.05;7.88;;;14.50;99.90;;;;;;5100202;28;20491;-67
2022/05/17 06:57:07;;;;;;;;;;;14.60;99.90;;;;;;5083909;28;20081;-67
2022/05/17 06:59:34;;;;;;;12.93;7.07;;;14.80;99.90;;;;;;5084699;28;19947;-67
2022/05/17 07:02:00;;;;;;;14.38;7.40;;;14.90;99.90;;;;;;5087291;28;20028;-67
2022/05/17 07:04:29;;;;;;;14.93;7.53;;;15.00;99.90;;;;;;5088673;28;20042;-66
2022/05/17 07:06:55;;;;;;;16.50;9.02;;;15.10;99.90;;;;;;5098111;28;20027;-67
2022/05/17 07:09:22;;;;;;;14.82;8.20;;;15.20;99.90;;;;;;5089254;28;20495;-67
2022/05/17 07:14:38;;;;;;;12.52;6.28;;;15.50;99.90;;;;;;5075921;28;20541;-65
2022/05/17 07:17:21;;;;;;;12.63;6.45;;;15.80;99.90;;;;;;5071358;28;20079;-67
2022/05/17 07:19:47;;;;;;;9.82;5.85;;;15.90;99.90;;;;;;5091444;28;20062;-67
2022/05/17 07:22:13;;;;;;;11.68;6.63;;;16.00;99.90;;;;;;5094367;28;20031;-67
2022/05/17 07:24:41;;;;;;;11.13;6.25;;;16.10;99.90;;;;;;5094369;28;20036;-66
2022/05/17 07:27:09;;;;;;;11.77;5.90;;;16.30;99.90;;;;;;5094751;28;20104;-67
2022/05/17 07:29:35;;;;;;;12.15;5.68;;;16.50;99.90;;;;;;5094272;28;20418;-67
2022/05/17 07:32:01;;;;;;;10.27;6.00;;;16.60;99.90;;;;;;5095028;28;20012;-67
2022/05/17 07:34:27;;;;;;;9.02;5.75;;;16.80;99.90;;;;;;5094675;28;20028;-67
2022/05/17 07:36:54;;;;;;;8.93;4.72;;;16.90;99.90;;;;;;5095106;28;20036;-67
2022/05/17 07:39:20;;;;;;;10.43;4.18;;;17.00;99.90;;;;;;5076651;28;20028;-67
2022/05/17 07:41:45;;;;;;;8.05;3.85;;;17.20;99.90;;;;;;5074054;28;20037;-67
2022/05/17 07:44:11;;;;;;;5.82;3.10;;;17.30;99.90;;;;;;5073936;28;20419;-67
2022/05/17 07:46:38;;;;;;;7.40;3.42;;;17.40;99.90;;;;;;5074359;28;20404;-67
2022/05/17 07:49:06;;;;;;;7.03;3.42;;;17.50;99.90;;;;;;5074121;28;20104;-67
2022/05/17 07:51:32;;;;;;;6.57;3.05;;;17.60;99.90;;;;;;5082168;28;20028;-67
2022/05/17 07:53:58;;;;;;;4.38;2.03;;;17.70;99.90;;;;;;5086980;28;20079;-66
2022/05/17 07:56:24;;;;;;;3.42;1.98;;;17.90;99.90;;;;;;5073830;28;20063;-68
2022/05/17 07:58:49;;;;;;;2.28;1.50;;;17.80;99.90;;;;;;5088892;28;20055;-67
2022/05/17 08:01:15;;;;;;;3.22;1.23;;;17.90;99.90;;;;;;5086749;28;20391;-66
2022/05/17 08:03:41;;;;;;;2.85;1.10;;;18.10;99.90;;;;;;5092321;28;20062;-66
2022/05/17 08:06:06;;;;;;;2.03;0.95;;;18.30;99.90;;;;;;5082531;28;20024;-66
2022/05/17 08:08:32;;;;;;;3.08;1.20;;;18.40;99.90;;;;;;5073389;28;20025;-66
2022/05/17 08:10:58;;;;;;;2.88;1.45;;;18.50;99.90;;;;;;5088112;28;20111;-65
2022/05/17 08:13:25;;;;;;;6.18;1.08;;;18.50;99.90;;;;;;5091812;28;20024;-65
2022/05/17 08:15:51;;;;;;;5.05;1.10;;;18.70;99.90;;;;;;5087605;28;20034;-65
2022/05/17 08:18:18;;;;;;;3.65;1.48;;;18.90;99.90;;;;;;5087668;28;20043;-64
2022/05/17 08:20:44;;;;;;;5.17;1.47;;;19.10;99.90;;;;;;5087427;28;20038;-64
2022/05/17 08:23:10;;;;;;;3.80;1.20;;;18.90;99.90;;;;;;5086222;28;20036;-65
2022/05/17 08:28:20;;;;;;;1.70;1.10;;;19.00;99.90;;;;;;5085995;28;20568;-65
2022/05/17 08:30:47;;;;;;;1.80;1.00;;;19.40;99.90;;;;;;5087513;28;20104;-65
2022/05/17 08:33:16;;;;;;;2.92;1.17;;;19.60;99.50;;;;;;5074055;28;20107;-64
2022/05/17 08:35:55;;;;;;;2.85;0.90;;;19.70;99.90;;;;;;5086898;28;20057;-65
2022/05/17 08:38:40;;;;;;;1.50;1.00;;;19.80;99.30;;;;;;5096453;28;20032;-65
2022/05/17 08:41:25;;;;;;;3.15;1.77;;;19.90;99.10;;;;;;5093233;28;20119;-65
2022/05/17 08:43:55;;;;;;;3.90;1.00;;;19.80;99.50;;;;;;5100137;28;20031;-65
2022/05/17 08:46:31;;;;;;;2.30;1.08;;;19.90;99.90;;;;;;5076166;28;20028;-65
2022/05/17 08:49:18;;;;;;;2.20;1.15;;;20.20;99.10;;;;;;5087122;28;20418;-65
2022/05/17 08:52:05;;;;;;;;;;;20.20;98.60;;;;;;5080922;28;20024;-65
2022/05/17 08:54:36;;;;;;;2.35;0.90;;;20.40;98.60;;;;;;5082878;28;19904;-65
2022/05/17 08:57:26;;;;;;;2.95;1.20;;;20.60;98.00;;;;;;5083329;28;20038;-65
2022/05/17 08:59:52;;;;;;;2.78;0.73;;;20.80;97.80;;;;;;5090518;28;20020;-65
2022/05/17 09:02:32;;;;;;;3.55;0.93;;;20.80;97.80;;;;;;5092500;28;20032;-65
2022/05/17 09:05:24;;;;;;;2.08;1.00;;;21.00;98.30;;;;;;5099130;28;20513;-64
2022/05/17 09:07:58;;;;;;;3.65;0.93;;;21.70;95.70;;;;;;5057511;28;20035;-65
2022/05/17 09:10:44;;;;;;;4.70;1.52;;;21.80;95.60;;;;;;5103690;28;20027;-65
2022/05/17 09:13:52;;;;;;;3.25;1.05;;;21.60;96.60;;;;;;5079529;28;20036;-65
2022/05/17 09:16:21;;;;;;;2.22;0.95;;;21.80;95.20;;;;;;5113003;27;20380;-65
2022/05/17 09:18:48;;;;;;;2.30;0.63;;;22.00;95.30;;;;;;5107450;28;20026;-65
2022/05/17 09:21:44;;;;;;;4.28;1.05;;;21.90;96.10;;;;;;5100945;28;20028;-65
2022/05/17 09:24:20;;;;;;;3.80;0.98;;;21.80;95.80;;;;;;5092922;28;20036;-65
2022/05/17 09:27:03;;;;;;;2.22;0.90;;;21.80;95.90;;;;;;5103699;28;20028;-66
2022/05/17 09:29:43;;;;;;;3.90;1.08;;;21.70;96.00;;;;;;5083000;28;20059;-66
2022/05/17 09:32:11;;;;;;;2.67;0.93;;;22.10;94.90;;;;;;5082650;28;20074;-65
2022/05/17 09:34:39;;;;;;;4.40;0.88;;;21.90;94.80;;;;;;5071968;28;20025;-64
2022/05/17 09:37:09;;;;;;;3.83;1.40;;;21.60;95.80;;;;;;5079750;28;20038;-65
2022/05/17 09:39:35;;;;;;;1.25;0.90;;;21.40;95.80;;;;;;5092204;28;20403;-64
2022/05/17 09:42:04;;;;;;;3.83;0.93;;;21.30;96.30;;;;;;5091544;28;20028;-65
2022/05/17 09:44:33;;;;;;;2.20;1.50;;;21.40;95.70;;;;;;5091061;28;20020;-63
2022/05/17 09:47:03;;;;;;;1.65;0.88;;;21.70;96.00;;;;;;5090475;28;20024;-64
2022/05/17 09:52:42;;;;;;;2.25;0.95;;;22.20;95.00;;;;;;5084690;28;20031;-64
2022/05/17 09:55:30;;;;;;;1.63;0.88;;;22.60;95.00;;;;;;5091281;28;20399;-65
2022/05/17 09:58:06;;;;;;;2.58;0.85;;;22.90;93.90;;;;;;5084824;28;20032;-64
2022/05/17 10:00:51;;;;;;;2.45;0.73;;;23.30;93.40;;;;;;5089204;28;20032;-65
2022/05/17 10:03:19;;;;;;;2.53;0.95;;;23.70;93.10;;;;;;5091885;28;20047;-65
2022/05/17 10:05:58;;;;;;;4.32;0.90;;;23.90;92.10;;;;;;5079898;28;20064;-65
2022/05/17 10:08:24;;;;;;;2.08;0.90;;;23.90;92.60;;;;;;5090523;28;20480;-65
2022/05/17 10:11:18;;;;;;;4.25;0.70;;;24.10;92.30;;;;;;5085326;28;20047;-61
2022/05/17 10:13:56;;;;;;;4.05;1.02;;;24.30;91.60;;;;;;5089349;28;20104;-62
2022/05/17 10:16:28;;;;;;;3.42;1.05;;;24.40;90.90;;;;;;5091122;28;20024;-62
2022/05/17 10:19:04;;;;;;;5.38;0.80;;;24.30;91.40;;;;;;5090719;28;20111;-62
2022/05/17 10:21:44;;;;;;;3.93;0.80;;;24.40;91.60;;;;;;5090415;28;20438;-62
2022/05/17 10:24:22;;;;;;;3.25;0.93;;;24.50;91.10;;;;;;5080777;28;20078;-62
2022/05/17 10:27:03;;;;;;;2.45;0.80;;;24.50;90.80;;;;;;5091700;28;20028;-62
2022/05/17 10:29:47;;;;;;;2.78;0.70;;;24.80;90.30;;;;;;5090890;28;20021;-62
2022/05/17 10:32:39;;;;;;;4.07;0.80;;;25.00;88.80;;;;;;5091484;28;20016;-61
2022/05/17 10:35:51;;;;;;;3.53;1.00;;;25.30;89.20;;;;;;5068225;28;20123;-63
2022/05/17 10:38:27;;;;;;;1.45;0.73;;;25.00;90.30;;;;;;5074846;28;20488;-61
2022/05/17 10:40:54;;;;;;;3.30;0.80;;;24.90;90.40;;;;;;5089117;28;20511;-62
2022/05/17 10:43:25;;;;;;;6.22;0.90;;;25.00;90.00;;;;;;5089003;28;20089;-62
2022/05/17 10:46:17;;;;;;;2.53;0.70;;;25.20;89.80;;;;;;5091098;28;20416;-61
2022/05/17 10:48:54;;;;;;;4.70;0.75;;;25.40;87.50;;;;;;5091291;28;20524;-60
2022/05/17 10:51:49;;;;;;;3.13;0.90;;;25.70;87.40;;;;;;5090720;28;20020;-60
2022/05/17 10:54:26;;;;;;;1.85;0.68;;;25.30;88.80;;;;;;5096220;28;20110;-64
2022/05/17 10:57:22;;;;;;;3.53;1.10;;;25.10;86.40;;;;;;5094972;28;20543;-64
2022/05/17 11:00:18;;;;;;;3.53;0.70;;;25.40;87.60;;;;;;5095136;28;20494;-64
2022/05/17 11:02:53;;;;;;;1.88;0.57;;;25.80;86.50;;;;;;5081982;28;20512;-64
2022/05/17 11:05:41;;;;;;;3.60;1.10;;;25.80;88.40;;;;;;5090549;28;20028;-64
2022/05/17 11:08:06;;;;;;;8.77;1.40;;;25.90;84.90;;;;;;5093856;28;20032;-64
2022/05/17 11:10:44;;;;;;;3.30;1.00;;;26.00;86.20;;;;;;5094492;28;20024;-64
2022/05/17 11:13:21;;;;;;;5.15;0.80;;;26.00;86.30;;;;;;5090867;28;20030;-64
2022/05/17 11:16:19;;;;;;;1.17;0.60;;;26.10;84.60;;;;;;5094426;28;20024;-64
2022/05/17 11:18:54;;;;;;;2.65;0.90;;;25.90;85.20;;;;;;5093229;28;20028;-65
2022/05/17 11:21:42;;;;;;;2.33;0.95;;;26.00;84.70;;;;;;5093922;28;20068;-61
2022/05/17 11:24:14;;;;;;;2.55;0.57;;;25.90;83.80;;;;;;5094233;28;20043;-64
2022/05/17 11:26:58;;;;;;;5.05;0.77;;;26.20;83.30;;;;;;5093889;28;20090;-63
2022/05/17 11:29:48;;;;;;;1.70;0.70;;;26.60;81.90;;;;;;5098816;28;20085;-63
2022/05/17 11:32:23;;;;;;;3.50;0.75;;;26.70;80.20;;;;;;5094023;28;20020;-62
2022/05/17 11:34:49;;;;;;;3.28;0.80;;;26.80;82.00;;;;;;5094122;28;20032;-63
2022/05/17 11:37:32;;;;;;;6.05;0.85;;;27.10;79.30;;;;;;5093589;28;20476;-62
2022/05/17 11:40:07;;;;;;;2.70;0.70;;;27.10;78.10;;;;;;5093625;28;20077;-62
2022/05/17 11:43:40;;;;;;;2.10;0.63;;;27.10;80.90;;;;;;5092231;28;20028;-63
2022/05/17 11:45:50;;;;;;;1.75;0.70;;;27.10;77.50;;;;;;5090395;28;20036;-62
2022/05/17 11:48:35;;;;;;;1.60;0.60;;;27.20;78.20;;;;;;5093740;28;20028;-60
2022/05/17 11:51:02;;;;;;;2.53;0.60;;;27.50;76.50;;;;;;5093712;28;20046;-60
2022/05/17 11:53:29;;;;;;;2.65;0.90;;;28.10;76.40;;;;;;5093142;28;20379;-60
2022/05/17 11:56:11;;;;;;;4.45;0.95;;;28.10;75.40;;;;;;5089207;28;20042;-61
2022/05/17 11:58:37;;;;;;;1.98;0.70;;;28.50;72.50;;;;;;5091762;28;20032;-61
2022/05/17 12:01:23;;;;;;;1.75;0.65;;;28.80;71.30;;;;;;5093815;28;20032;-60
2022/05/17 12:04:12;;;;;;;1.70;0.40;;;29.00;72.10;;;;;;5093170;28;20488;-60
2022/05/17 12:07:04;;;;;;;2.33;0.85;;;28.80;71.90;;;;;;5071503;28;20488;-62
2022/05/17 12:09:35;;;;;;;1.63;0.60;;;29.00;71.40;;;;;;5089594;28;20028;-61
2022/05/17 12:12:14;;;;;;;2.17;0.65;;;28.90;70.10;;;;;;5093214;28;20020;-61
2022/05/17 12:15:03;;;;;;;2.20;0.75;;;28.90;67.60;;;;;;5091909;28;20020;-60
2022/05/17 12:18:04;;;;;;;2.78;0.90;;;29.10;69.90;;;;;;5095692;28;20035;-62
2022/05/17 12:20:45;;;;;;;3.88;0.75;;;28.70;71.10;;;;;;5068034;28;20040;-62
2022/05/17 12:23:39;;;;;;;0.98;0.60;;;28.50;69.20;;;;;;5090991;28;20124;-63
2022/05/17 12:26:15;;;;;;;2.03;0.40;;;28.70;68.60;;;;;;5091610;28;20052;-62
2022/05/17 12:28:49;;;;;;;1.80;0.60;;;29.10;63.10;;;;;;5092764;28;20413;-61
2022/05/17 12:31:27;;;;;;;1.60;0.45;;;29.00;62.80;;;;;;5092797;28;20020;-61
2022/05/17 12:33:55;;;;;;;3.03;1.08;;;29.70;59.80;;;;;;5090289;28;20020;-60
2022/05/17 12:36:23;;;;;;;2.60;0.40;;;29.40;60.00;;;;;;5092588;28;20063;-62
2022/05/17 12:44:55;;;;;;;3.28;0.60;;;30.70;55.00;;;;;;5092773;28;20598;-62
2022/05/17 12:47:27;;;;;;;2.72;0.80;;;31.00;55.20;;;;;;5091649;28;20084;-64
2022/05/17 12:49:56;;;;;;;2.13;0.50;;;30.90;54.10;;;;;;5092652;28;20377;-62
2022/05/17 12:52:37;;;;;;;1.90;0.50;;;30.80;53.30;;;;;;5091740;28;20046;-63
2022/05/17 12:55:22;;;;;;;0.93;0.45;;;30.90;52.70;;;;;;5092808;28;20391;-63
2022/05/17 12:57:48;;;;;;;2.15;0.75;;;30.50;53.80;;;;;;5092403;28;20028;-63
2022/05/17 13:00:23;;;;;;;3.30;0.73;;;29.90;52.90;;;;;;5093403;28;20399;-63
2022/05/17 13:02:52;;;;;;;3.45;0.80;;;30.00;54.80;;;;;;5092396;28;20031;-63
2022/05/17 13:05:48;;;;;;;1.55;0.60;;;30.20;52.30;;;;;;5090580;28;20122;-63
2022/05/17 13:08:26;;;;;;;3.63;0.60;;;30.00;51.40;;;;;;5091996;28;20066;-64
2022/05/17 13:11:25;;;;;;;3.45;0.35;;;30.00;50.90;;;;;;5088862;28;20032;-63
2022/05/17 13:14:05;;;;;;;1.95;0.40;;;29.70;51.50;;;;;;5085331;28;20028;-64
2022/05/17 13:16:35;;;;;;;1.08;0.47;;;29.80;51.30;;;;;;5091424;28;20024;-64
2022/05/17 13:19:04;;;;;;;2.63;0.50;;;29.70;53.50;;;;;;5089503;28;20486;-64